»·PEaware :: N2W KPSP-KSNA

N2W :: KPSP-KSNA

FLIGHT INFORMATION

Flight Status: Arrived
Operator: Privately registered:
United States
More flights under this callsign
Pilot: Drew L. (13237)
Aircraft: CESSNA 550 CITATION 2/S2/BRAVO
(C550)
More flights by this aircraft type
Origin: KPSP Palm Springs Intl
United States
Destination: KSNA John Wayne-Orange Co
United States
More flights between these airports :: More routes between these airports
Route: VFR
File this flight plan on PilotEdge
Remarks: ROGER
Altitude:
(Current/Filed)
12,500ft
Speed:
(Current/Filed)
0kts
Departed: 24-Oct-18 07:43 PM
Arrived: 24-Oct-18 08:09 PM
Distance/Time
Traveled:
69nm/0:25
Distance/Time
To Go:
Arrived

Flight Plot

Page will automatically refresh every two minutes.


Map Options




Map Legend


Flown Route
Filed Route
Departure Airport
Arrival Airport
Navaid (VOR, NDB)
Fix

Horizontal Profiles

Position Reports

Time Latitude Longitude Heading Altitude Ground
Speed
24-Oct-18 19:23 33.825352 -116.509542 90 482ft 0kts
24-Oct-18 19:24 33.825352 -116.509542 90 482ft 0kts
24-Oct-18 19:25 33.825352 -116.509542 90 482ft 0kts
24-Oct-18 19:26 33.825352 -116.509542 90 482ft 0kts
24-Oct-18 19:27 33.825352 -116.509542 90 482ft 0kts
24-Oct-18 19:28 33.825352 -116.509542 90 482ft 0kts
24-Oct-18 19:29 33.825352 -116.509542 90 482ft 0kts
24-Oct-18 19:30 33.825352 -116.509542 90 482ft 0kts
24-Oct-18 19:31 33.825352 -116.509542 90 482ft 0kts
24-Oct-18 19:32 33.825352 -116.509542 90 482ft 0kts
24-Oct-18 19:33 33.825352 -116.509542 90 482ft 0kts
24-Oct-18 19:34 33.825352 -116.509542 91 482ft 0kts
24-Oct-18 19:35 33.825352 -116.509542 91 482ft 0kts
24-Oct-18 19:36 33.825352 -116.509542 91 482ft 0kts
24-Oct-18 19:37 33.825352 -116.509542 91 482ft 0kts
24-Oct-18 19:38 33.825351 -116.509511 90 482ft 1kts
24-Oct-18 19:39 33.825340 -116.507377 90 482ft 11kts
24-Oct-18 19:40 33.828101 -116.508291 322 482ft 27kts
24-Oct-18 19:41 33.835754 -116.515217 322 482ft 30kts
24-Oct-18 19:42 33.839564 -116.517759 28 482ft 0kts
24-Oct-18 19:43 33.839709 -116.517650 34 482ft 7kts
24-Oct-18 19:44 33.839767 -116.516635 144 482ft 20kts
24-Oct-18 19:45 33.814175 -116.495837 142 2401ft 137kts
24-Oct-18 19:46 33.829734 -116.469617 336 5506ft 149kts
24-Oct-18 19:47 33.864646 -116.489769 332 8731ft 141kts
24-Oct-18 19:48 33.883860 -116.525788 252 10494ft 193kts
24-Oct-18 19:49 33.861343 -116.594045 250 10482ft 237kts
24-Oct-18 19:50 33.836234 -116.670150 250 10485ft 250kts
24-Oct-18 19:51 33.799142 -116.740423 230 10490ft 259kts
24-Oct-18 19:52 33.751324 -116.805478 230 10481ft 261kts
24-Oct-18 19:53 33.703534 -116.870507 231 10425ft 260kts
24-Oct-18 19:54 33.675965 -116.946402 250 10445ft 254kts
24-Oct-18 19:55 33.651249 -117.020876 252 10470ft 252kts
24-Oct-18 19:56 33.638632 -117.100672 262 10498ft 250kts
24-Oct-18 19:57 33.628296 -117.169237 262 10182ft 217kts
24-Oct-18 19:58 33.618050 -117.238224 262 8698ft 211kts
24-Oct-18 19:59 33.608230 -117.306893 262 7191ft 207kts
24-Oct-18 20:00 33.599132 -117.373335 262 5730ft 211kts
24-Oct-18 20:01 33.599331 -117.442227 280 4526ft 219kts
24-Oct-18 20:02 33.610291 -117.513576 281 4491ft 217kts
24-Oct-18 20:03 33.621356 -117.583288 281 4482ft 217kts
24-Oct-18 20:04 33.632596 -117.651319 280 4491ft 217kts
24-Oct-18 20:05 33.639748 -117.692188 280 4239ft 220kts
24-Oct-18 20:06 33.648357 -117.741068 280 3703ft 224kts
24-Oct-18 20:07 33.653311 -117.766164 288 3385ft 223kts
24-Oct-18 20:08 33.679808 -117.804839 329 2236ft 209kts
24-Oct-18 20:09 33.707100 -117.840451 250 962ft 128kts
24-Oct-18 20:10 33.687456 -117.861313 207 237ft 111kts
24-Oct-18 20:11 33.672211 -117.871985 285 61ft 9kts
24-Oct-18 20:12 33.674699 -117.870959 27 61ft 23kts
24-Oct-18 20:13 33.681795 -117.866507 56 61ft 25kts
24-Oct-18 20:14 33.677094 -117.867965 207 63ft 100kts
24-Oct-18 20:15 33.666007 -117.884012 283 1339ft 135kts
24-Oct-18 20:16 33.699608 -117.880244 25 1850ft 162kts
24-Oct-18 20:17 33.711623 -117.859631 162 979ft 113kts
24-Oct-18 20:18 33.684889 -117.862969 207 166ft 92kts
24-Oct-18 20:19 33.670398 -117.872162 201 61ft 22kts
24-Oct-18 20:20 33.668781 -117.871357 179 61ft 9kts
24-Oct-18 20:21 33.666094 -117.873060 115 61ft 4kts

Navigation Log

Ident Type
1. KPSP Airport
2. KSNA Airport